createdAt,value
2022-10-09T00:01:26.190Z,100076.75
2022-10-09T00:03:55.415Z,100085.69
2022-10-09T00:06:28.341Z,100091.16
2022-10-09T00:08:56.193Z,100093.13
2022-10-09T00:11:27.205Z,100084.53
2022-10-09T00:13:56.311Z,100073.28
2022-10-09T00:16:24.494Z,100075.63
2022-10-09T00:18:51.911Z,100070.97
2022-10-09T00:21:25.257Z,100074.63
2022-10-09T00:23:54.652Z,100070.28
2022-10-09T00:26:22.291Z,100067.34
2022-10-09T00:28:50.010Z,100065.50
2022-10-09T00:31:17.642Z,100071.47
2022-10-09T00:33:45.190Z,100058.75
2022-10-09T00:36:18.190Z,100049.19
2022-10-09T00:38:45.269Z,100039.03
2022-10-09T00:41:18.456Z,100045.03
2022-10-09T00:43:51.758Z,100030.13
2022-10-09T00:46:25.805Z,100044.56
2022-10-09T00:49:09.852Z,100042.22
2022-10-09T00:51:37.332Z,100035.25
2022-10-09T00:54:08.764Z,100031.78
2022-10-09T00:56:35.894Z,100048.47
2022-10-09T00:59:04.382Z,100037.59
2022-10-09T01:01:31.605Z,100036.91
2022-10-09T01:03:59.172Z,100015.41
2022-10-09T01:06:52.884Z,100039.56
2022-10-09T01:09:42.309Z,100028.81
2022-10-09T01:12:29.377Z,100017.06
2022-10-09T01:15:05.176Z,100025.66
2022-10-09T01:18:06.110Z,100010.78
2022-10-09T01:21:05.495Z,100032.94
2022-10-09T01:23:32.502Z,100035.56
2022-10-09T01:26:02.588Z,100037.22
2022-10-09T01:28:31.234Z,100035.56
2022-10-09T01:31:01.844Z,100020.88
2022-10-09T01:33:31.439Z,100022.03
2022-10-09T01:36:00.958Z,100003.84
2022-10-09T01:38:30.033Z,100030.28
2022-10-09T01:40:58.208Z,100009.81
2022-10-09T01:43:25.272Z,100019.22
2022-10-09T01:45:52.369Z,100007.31
2022-10-09T01:48:25.216Z,100004.00
2022-10-09T01:51:01.985Z,100018.03
2022-10-09T01:53:30.039Z,100013.28
2022-10-09T01:56:07.536Z,100009.13
2022-10-09T01:59:04.168Z,100010.13
2022-10-09T02:01:34.353Z,100016.06
2022-10-09T02:04:05.577Z,100013.72
2022-10-09T02:06:34.276Z,99998.84
2022-10-09T02:09:04.278Z,100015.69
2022-10-09T02:11:32.447Z,100009.72
2022-10-09T02:13:59.750Z,100002.47
2022-10-09T02:16:39.336Z,100007.44
2022-10-09T02:19:32.427Z,99998.84
2022-10-09T02:22:23.189Z,100003.31
2022-10-09T02:24:50.339Z,100002.47
2022-10-09T02:27:20.682Z,100002.75
2022-10-09T02:29:49.228Z,99992.16
2022-10-09T02:32:16.565Z,99998.41
2022-10-09T02:34:43.645Z,99985.66
2022-10-09T02:37:10.843Z,99997.09
2022-10-09T02:39:38.466Z,99983.53
2022-10-09T02:42:05.637Z,99993.50
2022-10-09T02:44:32.757Z,99989.88
2022-10-09T02:46:59.805Z,99991.03
2022-10-09T02:49:27.083Z,99953.69
2022-10-09T02:51:54.147Z,99989.25
2022-10-09T02:54:21.201Z,99985.94
2022-10-09T02:56:48.295Z,99977.69
2022-10-09T02:59:15.357Z,99981.00
2022-10-09T03:01:42.690Z,99977.03
2022-10-09T03:04:09.846Z,99963.50
2022-10-09T03:06:36.903Z,99964.94
2022-10-09T03:09:04.191Z,99967.09
2022-10-09T03:11:31.223Z,99959.84
2022-10-09T03:13:58.343Z,99964.25
2022-10-09T03:16:26.998Z,99948.53
2022-10-09T03:18:55.044Z,99941.03
2022-10-09T03:21:24.602Z,99960.22
2022-10-09T03:23:53.377Z,99961.91
2022-10-09T03:26:23.724Z,99959.28
2022-10-09T03:28:52.506Z,99954.56
2022-10-09T03:31:46.993Z,99961.69
2022-10-09T03:34:11.095Z,99957.34
2022-10-09T03:36:38.147Z,99955.34
2022-10-09T03:39:05.271Z,99941.25
2022-10-09T03:41:32.416Z,99949.44
2022-10-09T03:43:59.530Z,99931.00
2022-10-09T03:46:26.685Z,99942.78
2022-10-09T03:48:53.830Z,99948.06
2022-10-09T03:51:21.118Z,99916.16
2022-10-09T03:53:48.167Z,99940.66
2022-10-09T03:56:15.262Z,99940.38
2022-10-09T03:58:42.317Z,99918.03
2022-10-09T04:01:09.658Z,99931.63
2022-10-09T04:03:36.783Z,99927.41
2022-10-09T04:06:03.939Z,99928.56
2022-10-09T04:08:31.345Z,99925.66
2022-10-09T04:11:01.920Z,99925.56
2022-10-09T04:13:29.154Z,99916.78
2022-10-09T04:15:56.591Z,99915.94
2022-10-09T04:18:24.222Z,99915.69
2022-10-09T04:20:56.574Z,99912.16
2022-10-09T04:23:26.381Z,99899.84
2022-10-09T04:25:58.557Z,99916.38
2022-10-09T04:28:30.498Z,99914.09
2022-10-09T04:30:58.649Z,99916.81
2022-10-09T04:33:27.278Z,99911.88
2022-10-09T04:35:55.865Z,99911.75
2022-10-09T04:38:24.851Z,99906.88
2022-10-09T04:41:05.720Z,99901.88
2022-10-09T04:43:33.454Z,99906.94
2022-10-09T04:46:08.594Z,99909.97
2022-10-09T04:48:40.391Z,99900.81
2022-10-09T04:51:08.361Z,99902.34
2022-10-09T04:53:37.009Z,99899.78
2022-10-09T04:56:07.168Z,99895.97
2022-10-09T04:58:36.562Z,99887.78
2022-10-09T05:01:13.265Z,99892.00
2022-10-09T05:03:40.380Z,99896.69
2022-10-09T05:06:10.297Z,99891.28
2022-10-09T05:08:37.672Z,99888.03
2022-10-09T05:11:07.480Z,99875.69
2022-10-09T05:13:37.067Z,99877.97
2022-10-09T05:16:07.061Z,99889.53
2022-10-09T05:18:35.199Z,99879.84
2022-10-09T05:21:05.611Z,99879.19
2022-10-09T05:23:33.023Z,99873.41
2022-10-09T05:26:03.539Z,99869.44
2022-10-09T05:28:30.752Z,99870.28
2022-10-09T05:30:58.058Z,99869.91
2022-10-09T05:33:25.212Z,99883.16
2022-10-09T05:35:57.355Z,99882.16
2022-10-09T05:38:25.478Z,99876.53
2022-10-09T05:40:52.584Z,99870.78
2022-10-09T05:43:20.149Z,99868.47
2022-10-09T05:45:47.310Z,99866.28
2022-10-09T05:48:14.417Z,99853.88
2022-10-09T05:50:42.261Z,99857.50
2022-10-09T05:53:09.401Z,99862.56
2022-10-09T05:55:36.499Z,99854.97
2022-10-09T05:58:03.708Z,99852.13
2022-10-09T06:00:31.281Z,99849.13
2022-10-09T06:02:58.408Z,99855.31
2022-10-09T06:05:25.503Z,99850.53
2022-10-09T06:07:52.589Z,99846.84
2022-10-09T06:10:19.737Z,99855.22
2022-10-09T06:12:47.198Z,99856.03
2022-10-09T06:15:14.688Z,99857.34
2022-10-09T06:17:41.773Z,99860.16
2022-10-09T06:20:09.509Z,99860.63
2022-10-09T06:22:36.584Z,99860.91
2022-10-09T06:25:03.834Z,99857.78
2022-10-09T06:27:31.012Z,99858.72
2022-10-09T06:29:58.335Z,99858.50
2022-10-09T06:32:25.488Z,99862.41
2022-10-09T06:34:53.015Z,99855.69
2022-10-09T06:37:20.140Z,99852.88
2022-10-09T06:39:47.273Z,99846.44
2022-10-09T06:42:14.351Z,99843.59
2022-10-09T06:44:50.925Z,99847.59
2022-10-09T06:47:17.985Z,99851.94
2022-10-09T06:49:45.122Z,99836.47
2022-10-09T06:52:12.184Z,99833.34
2022-10-09T06:54:39.273Z,99844.53
2022-10-09T06:57:06.353Z,99836.16
2022-10-09T06:59:33.441Z,99842.53
2022-10-09T07:02:00.582Z,99837.91
2022-10-09T07:04:27.772Z,99827.91
2022-10-09T07:06:54.864Z,99810.34
2022-10-09T07:09:21.962Z,99822.00
2022-10-09T07:12:07.674Z,99825.03
2022-10-09T07:14:34.861Z,99827.44
2022-10-09T07:17:02.725Z,99825.78
2022-10-09T07:19:29.889Z,99824.59
2022-10-09T07:21:57.196Z,99808.78
2022-10-09T07:24:25.469Z,99799.63
2022-10-09T07:26:55.451Z,99809.16
2022-10-09T07:29:22.938Z,99823.41
2022-10-09T07:31:50.142Z,99802.16
2022-10-09T07:34:17.364Z,99809.63
2022-10-09T07:36:44.485Z,99807.53
2022-10-09T07:39:11.754Z,99794.84
2022-10-09T07:41:38.841Z,99800.63
2022-10-09T07:44:05.915Z,99796.91
2022-10-09T07:46:34.114Z,99791.41
2022-10-09T07:49:03.124Z,99776.59
2022-10-09T07:51:31.708Z,99794.81
2022-10-09T07:54:00.294Z,99780.78
2022-10-09T07:56:31.893Z,99799.31
2022-10-09T07:59:04.263Z,99785.13
2022-10-09T08:01:33.316Z,99769.41
2022-10-09T08:04:01.214Z,99765.47
2022-10-09T08:06:29.192Z,99781.28
2022-10-09T08:08:58.437Z,99782.00
2022-10-09T08:11:27.350Z,99782.66
2022-10-09T08:13:54.714Z,99787.44
2022-10-09T08:16:23.793Z,99786.00
2022-10-09T08:18:55.020Z,99785.88
2022-10-09T08:21:22.087Z,99762.22
2022-10-09T08:23:53.197Z,99785.44
2022-10-09T08:26:22.426Z,99755.53
2022-10-09T08:28:51.992Z,99780.63
2022-10-09T08:31:19.438Z,99765.50
2022-10-09T08:33:46.920Z,99765.50
2022-10-09T08:36:17.684Z,99765.69
2022-10-09T08:38:47.571Z,99757.28
2022-10-09T08:41:34.561Z,99771.13
2022-10-09T08:44:05.587Z,99769.31
2022-10-09T08:46:44.144Z,99766.13
2022-10-09T08:49:22.567Z,99776.41
2022-10-09T08:51:50.580Z,99760.19
2022-10-09T08:54:40.378Z,99765.31
2022-10-09T08:57:13.495Z,99760.44
2022-10-09T08:59:40.930Z,99758.88
2022-10-09T09:02:22.018Z,99753.94
2022-10-09T09:04:58.334Z,99760.50
2022-10-09T09:07:34.219Z,99761.81
2022-10-09T09:10:01.318Z,99759.78
2022-10-09T09:12:36.495Z,99760.69
2022-10-09T09:15:23.859Z,99747.38
2022-10-09T09:18:02.804Z,99760.66
2022-10-09T09:20:55.557Z,99751.25
2022-10-09T09:23:42.788Z,99743.34
2022-10-09T09:26:16.238Z,99747.00
2022-10-09T09:28:54.834Z,99745.56
2022-10-09T09:31:41.549Z,99745.19
2022-10-09T09:34:28.789Z,99720.41
2022-10-09T09:36:59.155Z,99742.16
2022-10-09T09:40:24.295Z,99732.25
2022-10-09T09:42:20.769Z,99739.22
2022-10-09T09:45:02.126Z,99736.38
2022-10-09T09:47:34.683Z,99728.56
2022-10-09T09:50:04.890Z,99735.97
2022-10-09T09:52:40.531Z,99714.25
2022-10-09T09:55:08.107Z,99720.59
2022-10-09T09:57:42.142Z,99731.69
2022-10-09T10:00:20.353Z,99718.00
2022-10-09T10:02:48.146Z,99713.94
2022-10-09T10:05:27.422Z,99719.25
2022-10-09T10:07:54.576Z,99714.75
2022-10-09T10:10:25.379Z,99716.78
2022-10-09T10:12:53.600Z,99711.88
2022-10-09T10:15:26.049Z,99701.84
2022-10-09T10:18:05.464Z,99672.91
2022-10-09T10:20:49.802Z,99671.50
2022-10-09T10:23:38.134Z,99690.13
2022-10-09T10:26:29.170Z,99687.28
2022-10-09T10:29:14.709Z,99694.03
2022-10-09T10:32:09.605Z,99694.25
2022-10-09T10:35:02.740Z,99682.75
2022-10-09T10:37:38.832Z,99680.25
2022-10-09T10:40:32.985Z,99681.06
2022-10-09T10:43:15.263Z,99678.63
2022-10-09T10:45:58.425Z,99676.19
2022-10-09T10:48:41.355Z,99679.06
2022-10-09T10:51:27.406Z,99686.47
2022-10-09T10:54:11.672Z,99660.44
2022-10-09T10:57:10.519Z,99677.41
2022-10-09T10:59:37.853Z,99680.28
2022-10-09T11:02:07.647Z,99681.47
2022-10-09T11:04:42.457Z,99672.47
2022-10-09T11:07:33.781Z,99667.53
2022-10-09T11:10:30.326Z,99670.81
2022-10-09T11:13:01.237Z,99661.34
2022-10-09T11:15:37.542Z,99659.91
2022-10-09T11:18:45.090Z,99658.66
2022-10-09T11:21:34.789Z,99633.91
2022-10-09T11:24:17.404Z,99640.81
2022-10-09T11:27:02.294Z,99628.94
2022-10-09T11:29:40.698Z,99645.78
2022-10-09T11:32:13.950Z,99641.44
2022-10-09T11:34:46.730Z,99635.69
2022-10-09T11:37:23.657Z,99640.38
2022-10-09T11:39:51.080Z,99639.56
2022-10-09T11:42:23.460Z,99634.06
2022-10-09T11:45:05.330Z,99645.31
2022-10-09T11:47:53.394Z,99644.91
2022-10-09T11:51:04.839Z,99653.53
2022-10-09T11:53:37.205Z,99632.44
2022-10-09T11:56:20.008Z,99647.78
2022-10-09T11:59:04.857Z,99653.91
2022-10-09T12:01:34.986Z,99653.56
2022-10-09T12:04:06.466Z,99662.22
2022-10-09T12:06:46.790Z,99667.16
2022-10-09T12:09:30.604Z,99672.03
2022-10-09T12:12:07.349Z,99667.97
2022-10-09T12:14:37.541Z,99665.69
2022-10-09T12:17:24.159Z,99636.41
2022-10-09T12:20:00.957Z,99665.91
2022-10-09T12:22:36.726Z,99643.00
2022-10-09T12:25:15.867Z,99658.53
2022-10-09T12:27:43.458Z,99640.50
2022-10-09T12:30:14.242Z,99665.28
2022-10-09T12:33:06.200Z,99667.16
2022-10-09T12:35:36.448Z,99652.41
2022-10-09T12:38:16.994Z,99656.72
2022-10-09T12:40:48.868Z,99663.91
2022-10-09T12:43:18.697Z,99674.13
2022-10-09T12:45:49.128Z,99678.06
2022-10-09T12:48:22.797Z,99692.81
2022-10-09T12:50:50.490Z,99674.56
2022-10-09T12:53:26.545Z,99668.41
2022-10-09T12:55:59.312Z,99691.72
2022-10-09T12:58:30.222Z,99645.81
2022-10-09T13:01:00.751Z,99669.19
2022-10-09T13:03:41.405Z,99675.34
2022-10-09T13:06:20.668Z,99654.44
2022-10-09T13:08:56.472Z,99663.09
2022-10-09T13:11:29.677Z,99682.97
2022-10-09T13:13:56.818Z,99679.91
2022-10-09T13:16:24.493Z,99675.38
2022-10-09T13:19:00.481Z,99670.06
2022-10-09T13:21:35.214Z,99683.59
2022-10-09T13:24:13.359Z,99677.41
2022-10-09T13:26:43.828Z,99690.91
2022-10-09T13:29:13.421Z,99685.59
2022-10-09T13:31:43.428Z,99667.28
2022-10-09T13:34:13.216Z,99709.97
2022-10-09T13:36:40.920Z,99714.72
2022-10-09T13:39:14.592Z,99721.97
2022-10-09T13:41:43.681Z,99733.13
2022-10-09T13:44:10.918Z,99728.78
2022-10-09T13:46:38.048Z,99740.06
2022-10-09T13:49:05.185Z,99735.00
2022-10-09T13:51:32.762Z,99718.06
2022-10-09T13:53:59.916Z,99737.03
2022-10-09T13:56:27.859Z,99734.25
2022-10-09T13:58:55.073Z,99730.59
2022-10-09T14:01:22.174Z,99739.44
2022-10-09T14:03:49.394Z,99747.75
2022-10-09T14:06:16.574Z,99744.75
2022-10-09T14:08:43.824Z,99742.34
2022-10-09T14:11:10.941Z,99749.16
2022-10-09T14:13:38.028Z,99747.78
2022-10-09T14:16:06.807Z,99749.41
2022-10-09T14:18:34.332Z,99755.47
2022-10-09T14:21:11.308Z,99751.44
2022-10-09T14:23:41.923Z,99761.81
2022-10-09T14:26:09.378Z,99765.09
2022-10-09T14:28:36.805Z,99766.22
2022-10-09T14:31:08.333Z,99769.94
2022-10-09T14:33:35.436Z,99735.38
2022-10-09T14:36:07.759Z,99770.03
2022-10-09T14:38:38.516Z,99760.81
2022-10-09T14:41:06.030Z,99765.53
2022-10-09T14:43:33.460Z,99748.19
2022-10-09T14:46:09.041Z,99779.59
2022-10-09T14:48:36.105Z,99749.50
2022-10-09T14:51:09.698Z,99777.31
2022-10-09T14:53:37.255Z,99795.94
2022-10-09T14:56:07.601Z,99792.88
2022-10-09T14:58:36.533Z,99791.38
2022-10-09T15:01:04.407Z,99796.63
2022-10-09T15:03:31.962Z,99802.56
2022-10-09T15:06:03.999Z,99800.00
2022-10-09T15:08:32.901Z,99804.47
2022-10-09T15:11:00.470Z,99800.63
2022-10-09T15:13:28.354Z,99812.97
2022-10-09T15:16:03.648Z,99810.47
2022-10-09T15:18:30.916Z,99803.34
2022-10-09T15:20:59.728Z,99832.78
2022-10-09T15:23:27.948Z,99821.09
2022-10-09T15:25:58.035Z,99833.44
2022-10-09T15:28:25.746Z,99832.03
2022-10-09T15:30:55.883Z,99830.94
2022-10-09T15:33:22.945Z,99830.97
2022-10-09T15:35:50.557Z,99850.16
2022-10-09T15:38:20.101Z,99844.50
2022-10-09T15:40:52.208Z,99846.59
2022-10-09T15:43:21.912Z,99852.50
2022-10-09T15:45:50.155Z,99851.69
2022-10-09T15:48:22.015Z,99855.09
2022-10-09T15:50:51.794Z,99849.78
2022-10-09T15:53:21.108Z,99856.91
2022-10-09T15:55:50.535Z,99850.41
2022-10-09T15:58:24.982Z,99855.69
2022-10-09T16:00:52.075Z,99845.94
2022-10-09T16:03:19.442Z,99856.19
2022-10-09T16:05:51.003Z,99852.88
2022-10-09T16:08:19.231Z,99860.19
2022-10-09T16:10:49.390Z,99857.50
2022-10-09T16:13:16.981Z,99831.41
2022-10-09T16:15:49.283Z,99860.41
2022-10-09T16:18:20.879Z,99856.78
2022-10-09T16:20:48.906Z,99862.16
2022-10-09T16:23:16.808Z,99868.78
2022-10-09T16:25:44.174Z,99857.13
2022-10-09T16:28:12.824Z,99859.78
2022-10-09T16:30:42.008Z,99833.69
2022-10-09T16:33:12.681Z,99822.03
2022-10-09T16:35:40.484Z,99851.13
2022-10-09T16:38:07.924Z,99866.31
2022-10-09T16:41:00.705Z,99857.75
2022-10-09T16:43:22.163Z,99865.28
2022-10-09T16:45:49.337Z,99868.56
2022-10-09T16:48:16.465Z,99868.44
2022-10-09T16:50:43.644Z,99855.69
2022-10-09T16:53:10.879Z,99862.31
2022-10-09T16:55:38.186Z,99862.16
2022-10-09T16:58:05.391Z,99847.25
2022-10-09T17:00:32.513Z,99874.66
2022-10-09T17:02:59.835Z,99859.84
2022-10-09T17:05:26.964Z,99851.03
2022-10-09T17:07:54.619Z,99863.13
2022-10-09T17:10:22.143Z,99860.56
2022-10-09T17:12:49.287Z,99849.50
2022-10-09T17:15:16.722Z,99866.03
2022-10-09T17:17:43.825Z,99865.81
2022-10-09T17:20:11.157Z,99852.19
2022-10-09T17:22:38.241Z,99840.28
2022-10-09T17:25:05.897Z,99875.56
2022-10-09T17:27:33.007Z,99870.72
2022-10-09T17:30:00.157Z,99846.72
2022-10-09T17:32:27.392Z,99859.78
2022-10-09T17:34:54.467Z,99875.69
2022-10-09T17:37:21.699Z,99881.47
2022-10-09T17:39:52.258Z,99892.06
2022-10-09T17:42:22.336Z,99889.75
2022-10-09T17:44:49.403Z,99896.03
2022-10-09T17:47:16.688Z,99894.38
2022-10-09T17:49:49.638Z,99885.16
2022-10-09T17:52:17.385Z,99882.84
2022-10-09T17:54:44.537Z,99875.53
2022-10-09T17:57:12.568Z,99898.03
2022-10-09T17:59:39.724Z,99893.44
2022-10-09T18:02:06.880Z,99889.09
2022-10-09T18:04:34.311Z,99895.00
2022-10-09T18:07:01.872Z,99872.94
2022-10-09T18:09:29.105Z,99896.66
2022-10-09T18:11:56.243Z,99896.88
2022-10-09T18:14:23.329Z,99898.25
2022-10-09T18:16:50.517Z,99903.34
2022-10-09T18:19:18.969Z,99902.34
2022-10-09T18:21:48.564Z,99905.38
2022-10-09T18:24:16.422Z,99905.34
2022-10-09T18:26:44.606Z,99905.34
2022-10-09T18:29:11.785Z,99908.13
2022-10-09T18:31:39.178Z,99916.25
2022-10-09T18:34:06.466Z,99911.44
2022-10-09T18:36:34.955Z,99911.78
2022-10-09T18:39:14.497Z,99911.28
2022-10-09T18:41:41.989Z,99909.00
2022-10-09T18:44:17.406Z,99927.75
2022-10-09T18:46:48.535Z,99928.38
2022-10-09T18:49:19.159Z,99905.47
2022-10-09T18:51:47.625Z,99939.63
2022-10-09T18:54:18.318Z,99947.59
2022-10-09T18:56:46.412Z,99939.97
2022-10-09T18:59:17.032Z,99919.81
2022-10-09T19:01:44.217Z,99949.56
2022-10-09T19:04:14.168Z,99955.69
2022-10-09T19:06:41.241Z,99950.34
2022-10-09T19:09:08.369Z,99958.44
2022-10-09T19:11:35.477Z,99960.56
2022-10-09T19:14:02.659Z,99962.56
2022-10-09T19:16:32.436Z,99957.59
2022-10-09T19:19:00.191Z,99961.72
2022-10-09T19:21:27.500Z,99959.94
2022-10-09T19:23:55.059Z,99937.13
2022-10-09T19:26:23.295Z,99953.19
2022-10-09T19:28:50.514Z,99969.03
2022-10-09T19:31:17.775Z,99949.03
2022-10-09T19:33:44.877Z,99973.16
2022-10-09T19:36:13.905Z,99967.84
2022-10-09T19:38:41.792Z,99965.69
2022-10-09T19:41:14.867Z,99973.47
2022-10-09T19:43:45.945Z,99964.53
2022-10-09T19:46:17.481Z,99973.47
2022-10-09T19:48:45.898Z,99972.78
2022-10-09T19:51:15.576Z,99970.13
2022-10-09T19:53:43.649Z,99971.28
2022-10-09T19:56:13.059Z,99968.13
2022-10-09T19:58:41.818Z,99953.31
2022-10-09T20:01:12.952Z,99971.81
2022-10-09T20:03:40.723Z,99971.50
2022-10-09T20:06:11.243Z,99951.34
2022-10-09T20:08:40.435Z,99959.59
2022-10-09T20:11:08.788Z,99960.59
2022-10-09T20:13:37.824Z,99959.09
2022-10-09T20:16:08.514Z,99972.13
2022-10-09T20:18:35.944Z,99976.41
2022-10-09T20:21:02.989Z,99969.66
2022-10-09T20:23:30.047Z,99973.78
2022-10-09T20:26:08.753Z,99972.44
2022-10-09T20:28:37.420Z,99969.78
2022-10-09T20:31:07.103Z,99971.09
2022-10-09T20:33:36.514Z,99966.34
2022-10-09T20:36:05.038Z,99945.03
2022-10-09T20:38:32.230Z,99958.50
2022-10-09T20:41:07.536Z,99961.81
2022-10-09T20:43:36.074Z,99953.59
2022-10-09T20:46:14.345Z,99967.06
2022-10-09T20:48:42.992Z,99969.06
2022-10-09T20:51:10.161Z,99967.13
2022-10-09T20:53:37.441Z,99958.03
2022-10-09T20:56:07.963Z,99976.72
2022-10-09T20:58:35.451Z,99970.16
2022-10-09T21:01:09.966Z,99982.41
2022-10-09T21:03:39.148Z,99972.13
2022-10-09T21:06:09.089Z,99974.13
2022-10-09T21:08:36.409Z,99978.25
2022-10-09T21:11:09.659Z,99977.06
2022-10-09T21:13:38.038Z,99983.69
2022-10-09T21:16:07.129Z,99977.25
2022-10-09T21:18:35.197Z,99982.72
2022-10-09T21:21:09.547Z,99966.19
2022-10-09T21:23:36.758Z,99972.13
2022-10-09T21:26:05.072Z,99975.13
2022-10-09T21:28:32.329Z,99975.84
2022-10-09T21:30:59.543Z,99979.78
2022-10-09T21:33:26.700Z,99977.78
2022-10-09T21:35:55.471Z,99968.56
2022-10-09T21:38:23.751Z,99995.31
2022-10-09T21:40:51.148Z,99981.72
2022-10-09T21:43:18.660Z,99996.00
2022-10-09T21:45:49.548Z,99993.34
2022-10-09T21:48:17.123Z,100013.50
2022-10-09T21:50:45.851Z,100000.22
2022-10-09T21:53:13.201Z,100013.94
2022-10-09T21:55:40.289Z,100010.84
2022-10-09T21:58:08.076Z,99976.75
2022-10-09T22:00:35.216Z,100005.19
2022-10-09T22:03:02.563Z,100019.06
2022-10-09T22:05:29.642Z,100013.75
2022-10-09T22:07:56.722Z,100026.69
2022-10-09T22:10:24.083Z,100026.06
2022-10-09T22:12:51.365Z,100026.69
2022-10-09T22:15:18.977Z,100033.00
2022-10-09T22:17:46.066Z,100041.59
2022-10-09T22:20:13.322Z,100021.44
2022-10-09T22:22:40.960Z,100049.50
2022-10-09T22:25:08.494Z,100041.75
2022-10-09T22:27:35.550Z,100021.34
2022-10-09T22:30:03.005Z,100048.47
2022-10-09T22:32:30.695Z,100041.91
2022-10-09T22:34:57.782Z,100056.78
2022-10-09T22:37:25.043Z,100058.44
2022-10-09T22:39:52.174Z,100053.06
2022-10-09T22:42:19.249Z,100067.88
2022-10-09T22:44:46.352Z,100073.94
2022-10-09T22:47:13.726Z,100071.38
2022-10-09T22:49:40.838Z,100071.91
2022-10-09T22:52:07.871Z,100082.44
2022-10-09T22:54:34.954Z,100056.34
2022-10-09T22:57:02.042Z,100074.22
2022-10-09T22:59:29.192Z,100088.97
2022-10-09T23:01:57.893Z,100094.41
2022-10-09T23:04:25.267Z,100088.91
2022-10-09T23:06:55.141Z,100063.91
2022-10-09T23:09:24.224Z,100096.81
2022-10-09T23:11:51.890Z,100089.06
2022-10-09T23:14:19.416Z,100094.03
2022-10-09T23:16:46.710Z,100093.69
2022-10-09T23:19:13.802Z,100071.50
2022-10-09T23:21:42.845Z,100099.06
2022-10-09T23:24:12.262Z,100104.47
2022-10-09T23:26:39.322Z,100094.78
2022-10-09T23:29:09.607Z,100087.00
2022-10-09T23:31:37.152Z,100094.84
2022-10-09T23:34:05.458Z,100087.34
2022-10-09T23:36:33.001Z,100084.44
2022-10-09T23:39:01.845Z,100079.06
2022-10-09T23:41:29.704Z,100096.53
2022-10-09T23:43:57.035Z,100100.59
2022-10-09T23:46:27.869Z,100108.53
2022-10-09T23:48:55.510Z,100113.81
2022-10-09T23:51:24.453Z,100112.13
2022-10-09T23:53:51.773Z,100109.75
2022-10-09T23:56:31.054Z,100117.94
2022-10-09T23:59:00.000Z,100122.50
